Time;durP1;ratioP1;P1;durP2;ratioP2;P2;SDS_P1;SDS_P2;PMS_P1;PMS_P2;Temp;Humidity;BMP_temperature;BMP_pressure;BME280_temperature;BME280_humidity;BME280_pressure;Samples;Min_cycle;Max_cycle;Signal;HPM_P1;HPM_P2
2023/11/30 00:00:39;;;;;;;0.57;0.35;;;;;;;-0.75;77.82;100833.97;4994924;28;20046;-72
2023/11/30 00:03:06;;;;;;;1.25;0.40;;;;;;;-0.73;77.49;100834.03;4994125;28;20050;-72
2023/11/30 00:05:34;;;;;;;1.20;0.52;;;;;;;-0.72;77.64;100836.63;4994597;28;20370;-72
2023/11/30 00:08:01;;;;;;;1.00;0.60;;;;;;;-0.70;77.77;100834.09;4993867;28;20050;-71
2023/11/30 00:10:28;;;;;;;1.08;0.55;;;;;;;-0.69;77.78;100839.25;4993797;28;20472;-72
2023/11/30 00:12:55;;;;;;;1.77;0.70;;;;;;;-0.68;78.33;100838.47;4994862;28;20056;-72
2023/11/30 00:15:22;;;;;;;1.67;0.70;;;;;;;-0.66;78.04;100838.47;4994024;28;20057;-71
2023/11/30 00:17:48;;;;;;;0.65;0.38;;;;;;;-0.64;77.99;100835.97;4994815;28;20060;-72
2023/11/30 00:20:15;;;;;;;0.80;0.40;;;;;;;-0.63;78.39;100832.56;5000722;28;20057;-72
2023/11/30 00:22:43;;;;;;;1.23;0.40;;;;;;;-0.60;77.92;100837.78;5000780;28;20492;-72
2023/11/30 00:25:10;;;;;;;1.55;0.68;;;;;;;-0.58;78.71;100825.88;5000180;28;20046;-72
2023/11/30 00:27:37;;;;;;;1.15;0.40;;;;;;;-0.58;77.98;100821.59;5000170;28;20046;-72
2023/11/30 00:30:06;;;;;;;1.55;0.40;;;;;;;-0.55;77.83;100820.81;5001166;28;20042;-75
2023/11/30 00:32:33;;;;;;;1.08;0.38;;;;;;;-0.53;77.78;100829.44;5000154;28;20096;-75
2023/11/30 00:35:00;;;;;;;2.35;0.30;;;;;;;-0.51;77.94;100827.81;5001506;28;20054;-75
2023/11/30 00:37:26;;;;;;;1.52;0.35;;;;;;;-0.52;78.18;100826.03;5000274;28;20054;-75
2023/11/30 00:39:55;;;;;;;2.83;0.45;;;;;;;-0.49;78.15;100832.13;5001053;28;20053;-72
2023/11/30 00:42:22;;;;;;;0.82;0.38;;;;;;;-0.48;77.84;100823.59;5001139;28;20051;-72
2023/11/30 00:44:48;;;;;;;0.55;0.25;;;;;;;-0.46;78.12;100831.34;5000382;28;20401;-72
2023/11/30 00:47:15;;;;;;;1.92;0.40;;;;;;;-0.45;77.70;100830.53;5001044;28;20394;-72
2023/11/30 00:49:42;;;;;;;0.90;0.40;;;;;;;-0.44;77.66;100832.25;5001012;28;20050;-72
2023/11/30 00:52:09;;;;;;;1.25;0.32;;;;;;;-0.43;78.08;100833.97;5000002;28;20053;-72
2023/11/30 00:54:35;;;;;;;2.28;0.30;;;;;;;-0.41;78.65;100834.03;4999936;28;20050;-72
2023/11/30 00:57:04;;;;;;;2.15;0.30;;;;;;;-0.40;78.69;100836.63;5000166;28;20054;-72
2023/11/30 00:59:31;;;;;;;0.68;0.60;;;;;;;-0.39;78.44;100838.38;4999885;28;20046;-72
2023/11/30 01:01:58;;;;;;;2.90;0.30;;;;;;;-0.37;77.44;100847.00;4999910;28;20050;-72
2023/11/30 01:04:24;;;;;;;0.30;0.20;;;;;;;-0.37;78.58;100844.44;4999851;28;20050;-72
2023/11/30 01:06:51;;;;;;;0.30;0.20;;;;;;;-0.35;77.63;100844.47;5000733;28;20047;-72
2023/11/30 01:09:18;;;;;;;0.40;0.20;;;;;;;-0.34;78.31;100849.66;5000127;28;20054;-72
2023/11/30 01:11:45;;;;;;;0.30;0.30;;;;;;;-0.34;78.32;100847.09;4999707;28;20058;-72
2023/11/30 01:14:13;;;;;;;0.30;0.20;;;;;;;-0.33;78.97;100846.25;4999694;28;20051;-72
2023/11/30 01:16:40;;;;;;;0.50;0.20;;;;;;;-0.31;78.20;100847.16;5000798;28;20129;-72
2023/11/30 01:19:07;;;;;;;0.50;0.20;;;;;;;-0.30;78.38;100842.91;5000706;28;20153;-72
2023/11/30 01:21:34;;;;;;;0.68;0.30;;;;;;;-0.30;78.38;100838.63;5000073;28;20065;-72
2023/11/30 01:24:01;;;;;;;0.40;0.20;;;;;;;-0.29;78.76;100840.34;4999625;28;20489;-72
2023/11/30 01:26:28;;;;;;;1.75;0.20;;;;;;;-0.26;78.25;100840.47;4999597;28;20058;-72
2023/11/30 01:28:55;;;;;;;0.17;0.15;;;;;;;-0.26;78.26;100835.34;4999859;28;20060;-72
2023/11/30 01:31:24;;;;;;;0.38;0.30;;;;;;;-0.23;78.60;100834.50;4997263;28;20053;-72
2023/11/30 01:33:51;;;;;;;0.40;0.25;;;;;;;-0.23;78.33;100826.81;4997482;28;20130;-72
2023/11/30 01:36:17;;;;;;;1.77;0.20;;;;;;;-0.23;78.74;100829.38;4997277;28;20042;-72
2023/11/30 01:38:44;;;;;;;0.30;0.20;;;;;;;-0.22;77.97;100831.13;4997368;28;20077;-75
2023/11/30 01:41:11;;;;;;;0.30;0.20;;;;;;;-0.19;78.38;100830.34;4997297;28;20054;-75
2023/11/30 01:43:38;;;;;;;0.55;0.20;;;;;;;-0.18;78.08;100824.38;4997361;28;20057;-75
2023/11/30 01:46:06;;;;;;;0.70;0.20;;;;;;;-0.18;78.17;100821.81;4997403;28;20050;-75
2023/11/30 01:48:35;;;;;;;0.57;0.30;;;;;;;-0.18;78.74;100814.97;4996909;28;20057;-74
2023/11/30 01:51:05;;;;;;;0.55;0.20;;;;;;;-0.15;78.26;100816.75;4996212;28;20570;-75
2023/11/30 01:53:32;;;;;;;0.30;0.17;;;;;;;-0.15;78.50;100816.75;4996340;28;20051;-75
2023/11/30 01:55:59;;;;;;;0.30;0.20;;;;;;;-0.13;78.18;100815.09;4996128;28;20046;-76
2023/11/30 01:58:26;;;;;;;0.73;0.25;;;;;;;-0.10;78.05;100820.31;4996859;28;20054;-75
2023/11/30 02:00:54;;;;;;;0.70;0.20;;;;;;;-0.11;78.26;100804.03;4996250;28;20046;-75
2023/11/30 02:03:21;;;;;;;1.52;0.32;;;;;;;-0.09;78.10;100811.75;4996932;28;20125;-76
2023/11/30 02:05:52;;;;;;;1.20;0.50;;;;;;;-0.08;78.28;100804.13;4996710;28;20050;-76
2023/11/30 02:08:19;;;;;;;0.60;0.30;;;;;;;-0.11;79.20;100803.19;4996860;28;20464;-76
2023/11/30 02:10:46;;;;;;;0.75;0.30;;;;;;;-0.11;77.88;100801.47;4995800;28;20057;-76
2023/11/30 02:13:13;;;;;;;0.40;0.30;;;;;;;-0.12;78.05;100786.88;4996844;28;20129;-76
2023/11/30 02:15:40;;;;;;;1.27;0.40;;;;;;;-0.07;78.93;100794.72;4996514;28;20068;-75
2023/11/30 02:18:07;;;;;;;1.77;0.40;;;;;;;-0.05;78.35;100798.19;4995459;28;20054;-76
2023/11/30 02:20:33;;;;;;;0.70;0.30;;;;;;;-0.05;78.54;100799.06;4995669;28;20054;-76
2023/11/30 02:23:02;;;;;;;1.17;0.40;;;;;;;-0.06;78.24;100791.28;4995761;28;20057;-76
2023/11/30 02:25:29;;;;;;;1.45;0.40;;;;;;;-0.05;78.56;100793.91;4996354;28;20129;-75
2023/11/30 02:27:58;;;;;;;1.08;0.80;;;;;;;-0.02;78.74;100803.41;4995894;28;20133;-76
2023/11/30 02:30:25;;;;;;;1.05;0.40;;;;;;;-0.03;78.31;100793.94;4995887;28;20053;-76
2023/11/30 02:32:52;;;;;;;0.55;0.30;;;;;;;-0.02;78.09;100798.25;4996505;28;20161;-76
2023/11/30 02:35:19;;;;;;;1.02;0.40;;;;;;;-0.01;78.45;100794.84;4995849;28;20050;-76
2023/11/30 02:37:46;;;;;;;1.13;1.02;;;;;;;0.00;78.21;100801.75;4995556;28;20495;-76
2023/11/30 02:40:14;;;;;;;0.80;0.50;;;;;;;0.01;78.28;100794.91;4996260;28;20129;-76
2023/11/30 02:42:41;;;;;;;0.47;0.40;;;;;;;0.01;77.84;100793.19;4995710;28;20125;-76
2023/11/30 02:45:09;;;;;;;2.75;0.50;;;;;;;-0.04;78.56;100780.22;4996134;28;20057;-75
2023/11/30 02:47:36;;;;;;;0.80;0.40;;;;;;;0.02;78.26;100789.78;4995148;28;20134;-76
2023/11/30 02:50:03;;;;;;;0.60;0.30;;;;;;;0.02;77.92;100784.66;4995222;28;20130;-72
2023/11/30 02:52:30;;;;;;;1.77;0.55;;;;;;;-0.02;77.68;100773.44;4996129;28;20050;-72
2023/11/30 02:54:57;;;;;;;0.50;0.30;;;;;;;0.03;78.14;100778.72;4995790;28;20057;-72
2023/11/30 02:57:25;;;;;;;1.38;0.47;;;;;;;0.04;78.10;100777.88;4996023;28;20042;-72
2023/11/30 02:59:52;;;;;;;1.67;0.50;;;;;;;0.04;77.51;100784.72;4994883;28;20507;-72
2023/11/30 03:02:19;;;;;;;0.75;0.50;;;;;;;0.03;77.41;100786.41;4996046;28;20052;-72
2023/11/30 03:04:46;;;;;;;0.57;0.40;;;;;;;0.03;78.07;100781.28;4995669;28;20436;-72
2023/11/30 03:07:12;;;;;;;0.93;0.52;;;;;;;0.04;78.13;100784.72;4994726;28;20046;-72
2023/11/30 03:09:39;;;;;;;1.00;0.55;;;;;;;0.04;77.63;100777.00;4995497;28;20050;-72
2023/11/30 03:12:07;;;;;;;1.00;0.52;;;;;;;0.02;76.86;100782.09;4994788;28;20411;-72
2023/11/30 03:14:35;;;;;;;0.55;0.40;;;;;;;0.02;77.35;100778.66;4995513;28;20473;-72
2023/11/30 03:17:02;;;;;;;0.93;0.50;;;;;;;0.01;77.25;100777.78;4994628;28;20085;-72
2023/11/30 03:19:29;;;;;;;1.45;0.50;;;;;;;0.01;77.71;100777.78;4995770;28;20414;-72
2023/11/30 03:21:56;;;;;;;0.95;0.50;;;;;;;0.00;77.19;100781.19;4994396;28;20519;-72
2023/11/30 03:24:24;;;;;;;0.57;0.47;;;;;;;-0.01;77.13;100769.16;4994493;28;20047;-72
2023/11/30 03:26:50;;;;;;;0.90;0.60;;;;;;;0.00;77.36;100773.50;4994737;28;20509;-72
2023/11/30 03:29:17;;;;;;;2.30;0.75;;;;;;;-0.01;77.22;100771.75;4994252;28;20050;-72
2023/11/30 03:31:46;;;;;;;1.73;0.50;;;;;;;-0.06;76.93;100757.91;4994222;28;20133;-72
2023/11/30 03:34:13;;;;;;;1.05;0.50;;;;;;;-0.03;77.00;100771.72;4995171;28;20058;-72
2023/11/30 03:36:40;;;;;;;1.60;0.50;;;;;;;-0.03;77.50;100781.09;4994580;28;20057;-72
2023/11/30 03:39:07;;;;;;;1.48;0.77;;;;;;;-0.04;76.89;100775.09;4995299;28;20125;-72
2023/11/30 03:41:34;;;;;;;1.23;0.50;;;;;;;-0.04;76.31;100776.81;4994144;28;20050;-72
2023/11/30 03:44:01;;;;;;;1.17;0.70;;;;;;;-0.06;76.91;100776.78;4994157;28;20046;-72
2023/11/30 03:46:28;;;;;;;1.60;0.60;;;;;;;-0.07;76.94;100777.59;4994362;28;20130;-72
2023/11/30 03:48:57;;;;;;;1.05;0.55;;;;;;;-0.07;76.58;100774.16;4994881;28;20054;-72
2023/11/30 03:51:24;;;;;;;1.30;0.47;;;;;;;-0.07;76.50;100782.72;4995038;28;20050;-72
2023/11/30 03:53:50;;;;;;;1.00;0.60;;;;;;;-0.08;77.01;100772.44;4994535;28;20484;-72
2023/11/30 03:56:17;;;;;;;1.83;0.60;;;;;;;-0.10;76.42;100776.66;4994736;28;20054;-72
2023/11/30 03:58:44;;;;;;;1.85;0.45;;;;;;;-0.09;76.66;100773.25;4994145;28;20089;-75
2023/11/30 04:01:11;;;;;;;2.20;0.70;;;;;;;-0.07;76.29;100779.31;4994354;28;20148;-76
2023/11/30 04:03:38;;;;;;;3.65;0.70;;;;;;;-0.07;76.67;100769.91;4993903;28;20137;-76
2023/11/30 04:06:07;;;;;;;1.10;0.50;;;;;;;-0.07;76.64;100774.16;4993789;28;20051;-76
2023/11/30 04:08:35;;;;;;;2.10;0.60;;;;;;;-0.07;76.90;100769.03;4993873;28;20138;-70
2023/11/30 04:11:01;;;;;;;1.05;0.45;;;;;;;-0.08;76.32;100775.00;4994585;28;20047;-70
2023/11/30 04:13:29;;;;;;;0.77;0.47;;;;;;;-0.09;76.27;100773.25;4993786;28;20133;-70
2023/11/30 04:15:55;;;;;;;0.85;0.50;;;;;;;-0.10;76.42;100767.25;4994255;28;20404;-70
2023/11/30 04:18:22;;;;;;;0.95;0.55;;;;;;;-0.11;75.37;100759.53;4993861;28;20481;-70
2023/11/30 04:20:50;;;;;;;1.48;0.73;;;;;;;-0.12;75.94;100761.19;4993813;28;20416;-70
2023/11/30 04:23:18;;;;;;;1.80;0.50;;;;;;;-0.12;75.60;100755.19;4994912;28;20047;-70
2023/11/30 04:25:45;;;;;;;0.95;0.40;;;;;;;-0.13;76.12;100753.47;4993977;28;20050;-70
2023/11/30 04:28:12;;;;;;;2.45;0.50;;;;;;;-0.13;75.82;100750.91;4993610;28;20089;-70
2023/11/30 04:30:39;;;;;;;3.20;0.47;;;;;;;-0.15;76.14;100750.84;4994027;28;20411;-70
2023/11/30 04:33:06;;;;;;;1.02;0.38;;;;;;;-0.15;75.56;100760.25;4994649;28;20129;-70
2023/11/30 04:35:33;;;;;;;0.50;0.45;;;;;;;-0.16;75.54;100750.84;4994853;28;20058;-70
2023/11/30 04:38:00;;;;;;;1.00;0.50;;;;;;;-0.18;75.59;100744.78;4993599;28;20051;-70
2023/11/30 04:40:28;;;;;;;1.90;0.50;;;;;;;-0.18;74.89;100749.91;4993441;28;20043;-70
2023/11/30 04:42:55;;;;;;;0.88;0.52;;;;;;;-0.21;75.36;100745.56;4994326;28;20101;-70
2023/11/30 04:45:22;;;;;;;2.42;0.50;;;;;;;-0.22;75.30;100753.25;4993742;28;20050;-70
2023/11/30 04:47:49;;;;;;;1.95;0.60;;;;;;;-0.24;75.28;100742.94;4993445;28;20129;-70
2023/11/30 04:50:16;;;;;;;0.90;0.50;;;;;;;-0.26;75.21;100745.47;4993709;28;20050;-70
2023/11/30 04:52:44;;;;;;;1.38;0.50;;;;;;;-0.27;75.49;100746.28;4993496;28;20050;-70
2023/11/30 04:55:10;;;;;;;0.80;0.50;;;;;;;-0.29;75.33;100737.69;4993308;28;20050;-69
2023/11/30 04:57:39;;;;;;;1.33;0.45;;;;;;;-0.30;75.34;100738.53;4993279;28;20078;-70
2023/11/30 05:00:07;;;;;;;1.27;0.50;;;;;;;-0.31;75.44;100739.34;4993250;28;20046;-69
2023/11/30 05:02:34;;;;;;;1.60;0.43;;;;;;;-0.31;75.52;100734.22;4994351;28;20477;-70
2023/11/30 05:05:01;;;;;;;1.52;0.63;;;;;;;-0.32;75.22;100736.75;4993279;28;20046;-70
2023/11/30 05:07:28;;;;;;;1.05;0.55;;;;;;;-0.35;74.64;100732.41;4997902;28;20483;-70
2023/11/30 05:09:55;;;;;;;2.15;0.50;;;;;;;-0.36;75.46;100738.38;4997856;28;20062;-70
2023/11/30 05:12:21;;;;;;;1.00;0.50;;;;;;;-0.42;75.12;100730.53;4997977;28;20213;-70
2023/11/30 05:14:50;;;;;;;1.45;0.70;;;;;;;-0.39;75.61;100734.88;4997833;28;20052;-69
2023/11/30 05:17:18;;;;;;;1.15;0.95;;;;;;;-0.41;75.12;100733.94;4997648;28;20104;-70
2023/11/30 05:19:45;;;;;;;1.40;0.80;;;;;;;-0.43;74.95;100739.03;4997285;28;20097;-70
2023/11/30 05:22:11;;;;;;;1.83;0.90;;;;;;;-0.43;75.12;100738.16;4997801;28;20042;-69
2023/11/30 05:24:38;;;;;;;2.63;0.90;;;;;;;-0.45;75.10;100733.00;4997851;28;20209;-70
2023/11/30 05:27:05;;;;;;;2.47;0.95;;;;;;;-0.47;75.63;100732.09;4997724;28;20053;-70
2023/11/30 05:29:32;;;;;;;2.08;1.45;;;;;;;-0.50;74.63;100739.72;4996970;28;20411;-70
2023/11/30 05:32:00;;;;;;;1.70;0.98;;;;;;;-0.53;75.21;100732.81;4997461;28;20399;-70
2023/11/30 05:34:27;;;;;;;1.85;0.90;;;;;;;-0.51;74.78;100735.44;4996709;28;20137;-70
2023/11/30 05:36:54;;;;;;;1.67;0.60;;;;;;;-0.53;75.55;100735.38;4996479;28;20049;-70
2023/11/30 05:39:21;;;;;;;1.83;1.10;;;;;;;-0.53;75.59;100739.63;4996549;28;20057;-70
2023/11/30 05:41:49;;;;;;;4.40;1.20;;;;;;;-0.55;75.10;100744.72;4996699;28;20046;-70
2023/11/30 05:44:16;;;;;;;3.63;1.30;;;;;;;-0.55;75.42;100731.88;4996308;28;20042;-69
2023/11/30 05:46:45;;;;;;;3.00;1.17;;;;;;;-0.54;75.15;100737.88;4996272;28;20493;-69
2023/11/30 05:49:14;;;;;;;1.30;0.45;;;;;;;-0.55;74.82;100731.88;4996177;28;20137;-70
2023/11/30 05:51:41;;;;;;;2.15;1.55;;;;;;;-0.55;75.54;100734.47;4996289;28;20141;-70
2023/11/30 05:54:08;;;;;;;1.83;0.90;;;;;;;-0.55;75.40;100736.16;4997303;28;20050;-69
2023/11/30 05:56:35;;;;;;;2.95;1.13;;;;;;;-0.54;75.57;100743.91;4996126;28;20492;-70
2023/11/30 05:59:02;;;;;;;1.30;0.77;;;;;;;-0.53;75.33;100742.22;4997312;28;20052;-70
2023/11/30 06:01:29;;;;;;;1.60;0.82;;;;;;;-0.53;75.49;100740.50;4996729;28;20405;-70
2023/11/30 06:03:56;;;;;;;1.15;0.60;;;;;;;-0.52;75.45;100743.94;4996873;28;20129;-70
2023/11/30 06:06:25;;;;;;;1.65;0.57;;;;;;;-0.51;75.51;100748.25;4997081;28;20053;-70
2023/11/30 06:08:52;;;;;;;1.88;0.90;;;;;;;-0.52;75.11;100754.19;4995889;28;20603;-70
2023/11/30 06:11:18;;;;;;;1.17;0.60;;;;;;;-0.52;75.11;100751.63;4996563;28;20497;-70
2023/11/30 06:13:45;;;;;;;1.95;0.82;;;;;;;-0.53;75.39;100768.72;4996863;28;20081;-70
2023/11/30 06:16:12;;;;;;;1.95;0.80;;;;;;;-0.52;75.49;100751.63;4996327;28;20049;-70
2023/11/30 06:18:39;;;;;;;1.63;0.63;;;;;;;-0.53;75.41;100753.34;4995731;28;20137;-73
2023/11/30 06:21:09;;;;;;;1.02;0.50;;;;;;;-0.51;75.15;100758.53;4996171;28;20396;-73
2023/11/30 06:23:37;;;;;;;0.93;0.50;;;;;;;-0.51;75.46;100746.56;4995580;28;20086;-73
2023/11/30 06:26:05;;;;;;;1.20;0.60;;;;;;;-0.51;74.85;100750.81;4995547;28;20064;-73
2023/11/30 06:28:31;;;;;;;0.80;0.47;;;;;;;-0.51;75.40;100745.69;4995479;28;20053;-76
2023/11/30 06:30:58;;;;;;;1.20;0.50;;;;;;;-0.50;74.60;100747.41;4995461;28;20497;-76
2023/11/30 06:33:25;;;;;;;1.40;0.50;;;;;;;-0.51;75.04;100748.25;4995496;28;20062;-76
2023/11/30 06:35:52;;;;;;;0.70;0.40;;;;;;;-0.53;74.92;100744.78;4996920;28;20054;-77
2023/11/30 06:38:19;;;;;;;0.95;0.50;;;;;;;-0.52;75.01;100738.81;4996742;28;20149;-75
2023/11/30 06:40:48;;;;;;;0.88;0.55;;;;;;;-0.55;75.32;100741.28;4995239;28;20053;-77
2023/11/30 06:43:15;;;;;;;0.80;0.40;;;;;;;-0.51;74.81;100748.25;4996618;28;20141;-77
2023/11/30 06:45:43;;;;;;;0.85;0.40;;;;;;;-0.50;75.06;100744.84;4995292;28;20042;-77
2023/11/30 06:48:10;;;;;;;0.70;0.40;;;;;;;-0.52;74.16;100743.94;4995218;28;20050;-77
2023/11/30 06:50:36;;;;;;;3.25;0.40;;;;;;;-0.51;74.70;100743.13;4995304;28;20092;-76
2023/11/30 06:53:03;;;;;;;0.63;0.43;;;;;;;-0.52;74.36;100739.66;4995045;28;20134;-76
2023/11/30 06:55:30;;;;;;;1.30;0.43;;;;;;;-0.50;75.39;100745.72;4995060;28;20469;-76
2023/11/30 06:57:58;;;;;;;1.30;0.40;;;;;;;-0.48;74.71;100746.63;4995146;28;20485;-76
2023/11/30 07:00:26;;;;;;;2.85;0.40;;;;;;;-0.48;74.23;100751.75;4994751;28;20056;-76
2023/11/30 07:02:53;;;;;;;0.50;0.30;;;;;;;-0.50;74.27;100744.84;4995931;28;20042;-77
2023/11/30 07:05:20;;;;;;;1.23;0.40;;;;;;;-0.50;74.69;100744.84;4994771;28;20424;-77
2023/11/30 07:07:48;;;;;;;0.90;0.50;;;;;;;-0.53;74.80;100747.34;4994618;28;20046;-77
2023/11/30 07:10:15;;;;;;;0.43;0.28;;;;;;;-0.53;74.00;100745.63;4994730;28;20101;-77
2023/11/30 07:12:42;;;;;;;1.55;1.45;;;;;;;-0.54;74.41;100741.34;4994905;28;20046;-77
2023/11/30 07:15:11;;;;;;;1.73;0.57;;;;;;;-0.54;74.77;100741.34;4995214;28;20059;-77
2023/11/30 07:17:38;;;;;;;0.82;0.38;;;;;;;-0.52;75.09;100738.81;4994694;28;20047;-74
2023/11/30 07:20:06;;;;;;;0.98;0.40;;;;;;;-0.52;74.56;100751.63;4994542;28;20050;-75
2023/11/30 07:22:34;;;;;;;0.93;0.50;;;;;;;-0.53;74.23;100752.47;4994855;28;20058;-74
2023/11/30 07:25:01;;;;;;;0.90;0.40;;;;;;;-0.53;74.07;100737.06;4994422;28;20421;-74
2023/11/30 07:27:28;;;;;;;0.98;0.57;;;;;;;-0.53;74.14;100740.50;4994295;28;20133;-74
2023/11/30 07:29:55;;;;;;;1.30;0.50;;;;;;;-0.51;73.99;100748.25;4993769;28;20054;-70
2023/11/30 07:32:23;;;;;;;2.45;0.50;;;;;;;-0.52;74.35;100743.94;4994433;28;20046;-70
2023/11/30 07:34:50;;;;;;;0.85;0.28;;;;;;;-0.51;73.67;100755.94;4994423;28;20058;-70
2023/11/30 07:37:18;;;;;;;0.60;0.40;;;;;;;-0.50;73.88;100757.69;4995301;28;20049;-70
2023/11/30 07:39:45;;;;;;;1.30;0.50;;;;;;;-0.50;74.35;100758.53;4994212;28;20047;-76
2023/11/30 07:42:16;;;;;;;0.95;0.50;;;;;;;-0.51;73.91;100753.38;4994134;28;20046;-76
2023/11/30 07:44:43;;;;;;;0.50;0.38;;;;;;;-0.52;73.31;100754.19;4994276;28;20155;-76
2023/11/30 07:47:10;;;;;;;1.35;0.65;;;;;;;-0.53;73.69;100760.16;4994505;28;20130;-76
2023/11/30 07:49:39;;;;;;;0.90;0.55;;;;;;;-0.56;73.47;100757.53;4994494;28;20053;-77
2023/11/30 07:52:07;;;;;;;0.88;0.43;;;;;;;-0.54;74.05;100761.88;4994044;28;20050;-76
2023/11/30 07:54:34;;;;;;;1.40;0.40;;;;;;;-0.51;73.86;100758.53;4994602;28;20050;-77
2023/11/30 07:57:01;;;;;;;2.50;0.50;;;;;;;-0.49;73.77;100759.41;4993921;28;20117;-76
2023/11/30 07:59:28;;;;;;;2.78;0.40;;;;;;;-0.50;73.82;100760.25;4993821;28;20133;-77
2023/11/30 08:01:55;;;;;;;1.52;0.63;;;;;;;-0.46;74.09;100762.06;4993840;28;20133;-76
2023/11/30 08:04:22;;;;;;;1.65;0.70;;;;;;;-0.47;73.47;100760.31;4994094;28;20125;-77
2023/11/30 08:06:50;;;;;;;1.25;0.60;;;;;;;-0.46;73.31;100765.50;4994137;28;20057;-78
2023/11/30 08:09:17;;;;;;;1.08;0.40;;;;;;;-0.46;73.81;100765.50;4994753;28;20466;-76
2023/11/30 08:11:44;;;;;;;2.85;1.13;;;;;;;-0.46;73.61;100765.50;4993741;28;20373;-77
2023/11/30 08:14:12;;;;;;;3.28;0.95;;;;;;;-0.44;72.95;100774.94;4995060;28;20404;-76
2023/11/30 08:16:39;;;;;;;1.55;0.65;;;;;;;-0.46;73.82;100764.63;4993804;28;20082;-75
2023/11/30 08:19:05;;;;;;;1.17;0.68;;;;;;;-0.46;73.27;100764.63;4993664;28;20125;-77
2023/11/30 08:21:33;;;;;;;1.73;0.65;;;;;;;-0.45;73.44;100763.81;4993671;28;20129;-77
2023/11/30 08:24:01;;;;;;;4.22;1.10;;;;;;;-0.47;73.75;100763.75;4994577;28;20046;-79
2023/11/30 08:26:29;;;;;;;1.90;0.70;;;;;;;-0.45;73.52;100761.25;4993994;28;20060;-77
2023/11/30 08:28:56;;;;;;;2.10;0.60;;;;;;;-0.43;73.38;100757.00;4993901;28;20082;-78
2023/11/30 08:31:23;;;;;;;2.20;0.70;;;;;;;-0.43;73.90;100751.88;4993925;28;20058;-73
2023/11/30 08:33:50;;;;;;;2.83;0.80;;;;;;;-0.41;73.97;100757.91;4993578;28;20048;-73
2023/11/30 08:36:17;;;;;;;2.22;1.10;;;;;;;-0.42;73.84;100753.63;4993725;28;20056;-74
2023/11/30 08:38:44;;;;;;;1.38;0.55;;;;;;;-0.39;73.62;100751.13;4993228;28;20053;-81
2023/11/30 08:41:12;;;;;;;3.28;0.75;;;;;;;-0.43;73.69;100739.03;4996746;28;20054;-77
2023/11/30 08:43:39;;;;;;;1.10;0.70;;;;;;;-0.39;73.12;100746.00;4997600;28;20449;-76
2023/11/30 08:46:06;;;;;;;1.75;1.00;;;;;;;-0.38;73.56;100741.72;4997597;28;20051;-81
2023/11/30 08:48:33;;;;;;;2.47;0.70;;;;;;;-0.38;73.51;100742.59;4997673;28;20217;-74
2023/11/30 08:51:00;;;;;;;3.42;1.08;;;;;;;-0.37;73.47;100739.22;4997136;28;20057;-73
2023/11/30 08:53:27;;;;;;;1.63;0.95;;;;;;;-0.36;73.46;100740.06;4996990;28;20057;-70
2023/11/30 08:55:54;;;;;;;2.60;0.82;;;;;;;-0.35;73.36;100731.53;4996882;28;20057;-70
2023/11/30 08:58:23;;;;;;;1.50;0.65;;;;;;;-0.35;72.76;100732.41;4996896;28;20054;-70
2023/11/30 09:00:49;;;;;;;1.50;0.50;;;;;;;-0.33;73.56;100725.63;4996459;28;20054;-74
2023/11/30 09:03:18;;;;;;;1.75;0.70;;;;;;;-0.33;73.44;100727.31;4996917;28;20046;-74
2023/11/30 09:05:45;;;;;;;1.40;0.60;;;;;;;-0.30;73.82;100729.97;4997482;28;20050;-74
2023/11/30 09:08:12;;;;;;;1.23;0.80;;;;;;;-0.29;73.12;100732.53;4997061;28;20060;-73
2023/11/30 09:10:39;;;;;;;0.85;0.50;;;;;;;-0.28;73.72;100729.16;4997165;28;20133;-75
2023/11/30 09:13:07;;;;;;;1.40;0.65;;;;;;;-0.26;74.02;100727.50;4996729;28;20042;-73
2023/11/30 09:15:36;;;;;;;1.00;0.60;;;;;;;-0.24;73.93;100720.69;4996904;28;20074;-74
2023/11/30 09:18:03;;;;;;;1.50;0.95;;;;;;;-0.22;73.57;100722.47;4997243;28;20050;-76
2023/11/30 09:20:30;;;;;;;1.25;0.60;;;;;;;-0.24;74.23;100720.69;4997304;28;20050;-77
2023/11/30 09:22:57;;;;;;;1.70;0.90;;;;;;;-0.21;73.87;100729.31;4996534;28;20049;-77
2023/11/30 09:25:24;;;;;;;1.48;0.85;;;;;;;-0.19;74.24;100719.97;4996585;28;20141;-77
2023/11/30 09:27:51;;;;;;;1.20;0.70;;;;;;;-0.18;73.52;100724.25;4996311;28;20536;-77
2023/11/30 09:30:18;;;;;;;2.05;0.63;;;;;;;-0.18;74.47;100713.97;4996656;28;20046;-74
2023/11/30 09:32:46;;;;;;;1.27;0.70;;;;;;;-0.17;74.54;100708.91;4996348;28;20042;-74
2023/11/30 09:35:13;;;;;;;1.75;0.70;;;;;;;-0.16;74.29;100702.06;4996614;28;20046;-73
2023/11/30 09:37:40;;;;;;;4.03;1.05;;;;;;;-0.14;74.76;100711.53;4996290;28;20057;-72
2023/11/30 09:40:09;;;;;;;1.95;0.60;;;;;;;-0.16;74.34;100702.06;4996094;28;20042;-73
2023/11/30 09:42:36;;;;;;;2.92;1.42;;;;;;;-0.14;74.26;100705.50;4996373;28;20086;-72
2023/11/30 09:45:07;;;;;;;0.95;0.60;;;;;;;-0.18;74.24;100701.16;4995961;28;20518;-73
2023/11/30 09:47:34;;;;;;;1.88;0.80;;;;;;;-0.16;74.41;100691.78;4996452;28;20066;-73
2023/11/30 09:50:03;;;;;;;2.17;0.90;;;;;;;-0.16;74.35;100686.66;4996819;28;20050;-76
2023/11/30 09:52:31;;;;;;;1.83;0.85;;;;;;;-0.18;74.24;100688.31;4995427;28;20077;-75
2023/11/30 09:54:58;;;;;;;1.67;0.93;;;;;;;-0.16;74.39;100686.66;4996724;28;20424;-76
2023/11/30 09:57:25;;;;;;;1.25;0.60;;;;;;;-0.16;74.31;100684.94;4997181;28;20526;-76
2023/11/30 09:59:52;;;;;;;1.48;0.52;;;;;;;-0.16;74.02;100681.53;4996091;28;20051;-74
2023/11/30 10:02:19;;;;;;;1.75;1.30;;;;;;;-0.26;74.35;100665.91;4997031;28;20084;-73
2023/11/30 10:04:46;;;;;;;2.95;0.80;;;;;;;-0.16;74.47;100671.25;4996006;28;20046;-74
2023/11/30 10:07:15;;;;;;;2.80;1.25;;;;;;;-0.15;73.76;100670.41;4996722;28;20512;-76
2023/11/30 10:09:43;;;;;;;1.33;0.73;;;;;;;-0.16;74.60;100663.56;4995963;28;20061;-76
2023/11/30 10:12:10;;;;;;;4.38;1.38;;;;;;;-0.15;74.82;100662.72;4995891;28;20054;-73
2023/11/30 10:14:37;;;;;;;1.65;0.70;;;;;;;-0.15;74.57;100661.00;4996160;28;20046;-72
2023/11/30 10:17:04;;;;;;;1.38;0.55;;;;;;;-0.14;74.70;100660.19;4995753;28;20519;-75
2023/11/30 10:19:31;;;;;;;1.65;0.80;;;;;;;-0.15;74.40;100648.16;4995957;28;20056;-72
2023/11/30 10:21:58;;;;;;;1.52;0.80;;;;;;;-0.15;74.64;100639.59;4995588;28;20046;-73
2023/11/30 10:24:27;;;;;;;1.42;0.75;;;;;;;-0.12;74.38;100642.25;4996535;28;20536;-76
2023/11/30 10:26:55;;;;;;;2.53;0.80;;;;;;;-0.14;74.63;100633.63;4995456;28;20065;-75
2023/11/30 10:29:24;;;;;;;1.48;0.70;;;;;;;-0.12;74.74;100637.09;4995690;28;20523;-76
2023/11/30 10:31:55;;;;;;;3.17;0.80;;;;;;;-0.12;74.00;100626.84;4995136;28;20050;-76
2023/11/30 10:34:28;;;;;;;1.83;0.82;;;;;;;-0.11;74.80;100633.72;4996159;28;20468;-76
2023/11/30 10:36:58;;;;;;;2.75;0.70;;;;;;;-0.09;74.95;100632.03;4994904;28;20077;-74
2023/11/30 10:39:30;;;;;;;0.50;0.22;;;;;;;-0.10;74.87;100630.31;4995243;28;20516;-77
2023/11/30 10:42:03;;;;;;;1.27;0.68;;;;;;;-0.09;75.14;100632.03;4994951;28;20061;-77
2023/11/30 10:44:31;;;;;;;2.47;1.30;;;;;;;-0.09;74.41;100632.03;4995443;28;20070;-76
2023/11/30 10:46:59;;;;;;;1.30;0.60;;;;;;;-0.08;74.60;100629.50;4994897;28;20408;-75
2023/11/30 10:49:28;;;;;;;1.75;0.77;;;;;;;-0.07;74.40;100614.97;4995215;28;20078;-76
2023/11/30 10:51:56;;;;;;;1.70;0.55;;;;;;;-0.07;74.57;100609.84;4995112;28;20417;-79
2023/11/30 10:54:33;;;;;;;1.38;0.73;;;;;;;-0.07;74.81;100607.25;4995654;28;20049;-81
2023/11/30 10:57:01;;;;;;;1.10;0.63;;;;;;;-0.07;74.73;100603.00;4995591;28;20074;-81
2023/11/30 10:59:30;;;;;;;1.80;0.93;;;;;;;-0.13;74.52;100586.59;4994786;28;20049;-73
2023/11/30 11:01:58;;;;;;;1.00;0.50;;;;;;;-0.03;75.24;100601.34;4994512;28;20050;-73
2023/11/30 11:04:25;;;;;;;1.27;0.60;;;;;;;-0.06;74.45;100604.75;4994430;28;20088;-73
2023/11/30 11:07:00;;;;;;;3.38;0.70;;;;;;;-0.03;74.99;100607.38;4994662;28;20065;-74
2023/11/30 11:09:40;;;;;;;3.92;0.70;;;;;;;-0.05;74.57;100601.34;4994835;28;20051;-73
2023/11/30 11:12:07;;;;;;;3.28;0.93;;;;;;;-0.06;74.46;100611.56;4995750;28;20400;-73
2023/11/30 11:14:34;;;;;;;2.53;1.08;;;;;;;-0.06;74.75;100606.41;4994836;28;20077;-73
2023/11/30 11:17:07;;;;;;;2.40;0.90;;;;;;;-0.06;74.73;100598.72;4994874;28;20081;-72
2023/11/30 11:19:38;;;;;;;3.88;0.77;;;;;;;-0.06;74.98;100601.28;4995345;28;20056;-72
2023/11/30 11:22:15;;;;;;;3.08;0.85;;;;;;;-0.08;74.92;100593.56;4994935;28;20456;-72
2023/11/30 11:24:43;;;;;;;2.08;0.95;;;;;;;-0.07;75.36;100594.44;4994492;28;20043;-72
2023/11/30 11:27:10;;;;;;;1.20;0.65;;;;;;;-0.07;75.51;100582.44;4994534;28;20096;-73